Time;durP1;ratioP1;P1;durP2;ratioP2;P2;SDS_P1;SDS_P2;PMS_P1;PMS_P2;Temp;Humidity;BMP_temperature;BMP_pressure;BME280_temperature;BME280_humidity;BME280_pressure;Samples;Min_cycle;Max_cycle;Signal;HPM_P1;HPM_P2
2023/12/26 00:00:49;;;;;;;17.27;10.75;;;-1.10;99.90;;;;;;5098791;28;20102;-82
2023/12/26 00:03:16;;;;;;;20.10;12.18;;;-1.10;99.90;;;;;;5093459;28;20031;-80
2023/12/26 00:05:42;;;;;;;20.33;12.40;;;-1.10;99.90;;;;;;5098467;28;20023;-81
2023/12/26 00:08:08;;;;;;;20.00;11.95;;;-1.10;99.90;;;;;;5094393;28;20035;-80
2023/12/26 00:10:35;;;;;;;20.15;13.05;;;-1.20;99.90;;;;;;5097187;28;20054;-80
2023/12/26 00:13:01;;;;;;;22.33;11.97;;;-1.10;99.90;;;;;;5081845;28;20421;-79
2023/12/26 00:15:27;;;;;;;20.73;12.65;;;-1.00;99.90;;;;;;5099612;28;20259;-80
2023/12/26 00:17:53;;;;;;;19.55;11.07;;;-1.00;99.90;;;;;;5107207;28;20016;-79
2023/12/26 00:20:19;;;;;;;20.90;13.55;;;-1.00;99.90;;;;;;5096424;28;20058;-80
2023/12/26 00:22:45;;;;;;;16.13;11.02;;;-1.00;99.90;;;;;;5091760;28;20028;-80
2023/12/26 00:25:11;;;;;;;21.63;13.75;;;-0.80;99.90;;;;;;5092296;28;20020;-81
2023/12/26 00:27:38;;;;;;;23.45;14.63;;;-0.80;99.90;;;;;;5075469;28;20035;-78
2023/12/26 00:30:06;;;;;;;19.15;12.52;;;-0.80;99.90;;;;;;5107987;28;20473;-79
2023/12/26 00:32:32;;;;;;;19.35;13.55;;;-0.70;99.90;;;;;;5104451;28;20472;-78
2023/12/26 00:34:58;;;;;;;18.63;13.00;;;-0.70;99.90;;;;;;5091040;28;20024;-80
2023/12/26 00:37:24;;;;;;;22.80;14.65;;;-0.70;99.90;;;;;;5102995;28;20434;-79
2023/12/26 00:39:50;;;;;;;21.15;11.85;;;-0.70;99.90;;;;;;5108341;28;20381;-80
2023/12/26 00:42:15;;;;;;;19.77;13.30;;;-0.70;99.90;;;;;;5091920;28;20032;-77
2023/12/26 00:44:41;;;;;;;23.83;13.38;;;-0.60;99.90;;;;;;5104372;28;20040;-78
2023/12/26 00:47:07;;;;;;;19.30;12.93;;;-0.60;99.90;;;;;;5095066;28;20069;-78
2023/12/26 00:49:33;;;;;;;20.60;12.45;;;-0.60;99.90;;;;;;5097863;28;20032;-79
2023/12/26 00:51:59;;;;;;;19.45;11.65;;;-0.70;99.90;;;;;;5095722;28;20027;-78
2023/12/26 00:54:25;;;;;;;21.20;11.38;;;-0.60;99.90;;;;;;5111607;28;20039;-79
2023/12/26 00:56:50;;;;;;;18.55;11.20;;;-0.70;99.90;;;;;;5081928;28;20043;-78
2023/12/26 00:59:16;;;;;;;20.38;14.70;;;-0.80;99.90;;;;;;5089983;28;20071;-78
2023/12/26 01:01:42;;;;;;;18.85;12.10;;;-0.90;99.90;;;;;;5094044;28;20020;-80
2023/12/26 01:04:08;;;;;;;21.67;11.23;;;-0.90;99.90;;;;;;5093417;28;20024;-78
2023/12/26 01:06:34;;;;;;;21.48;11.40;;;-0.90;99.90;;;;;;5091950;28;20388;-78
2023/12/26 01:08:59;;;;;;;22.70;12.98;;;-0.80;99.90;;;;;;5106856;28;20028;-79
2023/12/26 01:11:26;;;;;;;22.58;13.60;;;-0.80;99.90;;;;;;5103810;28;20028;-79
2023/12/26 01:13:52;;;;;;;21.23;14.75;;;-0.70;99.90;;;;;;5105916;28;20031;-79
2023/12/26 01:16:19;;;;;;;18.77;11.27;;;-0.70;99.90;;;;;;5091684;28;20020;-78
2023/12/26 01:18:45;;;;;;;16.73;11.02;;;-0.60;99.90;;;;;;5092019;28;20430;-79
2023/12/26 01:21:11;;;;;;;19.10;12.80;;;-0.50;99.90;;;;;;5106063;28;20424;-79
2023/12/26 01:23:37;;;;;;;22.65;12.85;;;-0.50;99.90;;;;;;5095972;28;20019;-81
2023/12/26 01:26:03;;;;;;;21.30;13.52;;;-0.50;99.90;;;;;;5109431;28;20483;-79
2023/12/26 01:28:29;;;;;;;21.58;12.88;;;-0.50;99.90;;;;;;5091325;28;20123;-78
2023/12/26 01:30:55;;;;;;;25.13;14.90;;;-0.40;99.90;;;;;;5109124;28;20016;-80
2023/12/26 01:33:21;;;;;;;20.77;13.77;;;-0.40;99.90;;;;;;5102072;28;20024;-78
2023/12/26 01:35:48;;;;;;;22.35;13.93;;;-0.30;99.90;;;;;;5097371;28;20107;-78
2023/12/26 01:38:13;;;;;;;16.15;10.98;;;-0.20;99.90;;;;;;5095964;28;20024;-79
2023/12/26 01:40:40;;;;;;;17.13;11.38;;;-0.20;99.90;;;;;;5105629;28;20031;-79
2023/12/26 01:43:07;;;;;;;22.17;13.45;;;-0.40;99.90;;;;;;5115323;28;20028;-78
2023/12/26 01:45:33;;;;;;;16.65;10.00;;;-0.40;99.90;;;;;;5095594;28;20046;-79
2023/12/26 01:48:00;;;;;;;20.00;12.35;;;-0.40;99.90;;;;;;5095004;28;20032;-79
2023/12/26 01:50:27;;;;;;;21.33;11.60;;;-0.40;99.90;;;;;;5095042;28;20131;-79
2023/12/26 01:52:54;;;;;;;19.33;12.73;;;-0.40;99.90;;;;;;5101151;28;20477;-80
2023/12/26 01:55:21;;;;;;;21.80;12.95;;;-0.40;99.90;;;;;;5098681;28;20070;-80
2023/12/26 01:57:48;;;;;;;15.95;11.05;;;-0.30;99.90;;;;;;5094736;28;20024;-80
2023/12/26 02:00:14;;;;;;;17.45;11.48;;;-0.30;99.90;;;;;;5094550;28;20031;-79
2023/12/26 02:02:43;;;;;;;19.02;12.48;;;-0.20;99.90;;;;;;5094747;28;20032;-80
2023/12/26 02:05:10;;;;;;;21.70;13.13;;;-0.20;99.90;;;;;;5094692;28;20103;-79
2023/12/26 02:07:36;;;;;;;16.08;11.23;;;-0.30;99.90;;;;;;5096212;28;20066;-77
2023/12/26 02:10:03;;;;;;;20.20;13.00;;;-0.30;99.90;;;;;;5088942;28;20106;-80
2023/12/26 02:12:29;;;;;;;23.88;11.55;;;-0.40;99.90;;;;;;5094531;28;20024;-80
2023/12/26 02:14:57;;;;;;;18.67;12.02;;;-0.40;99.90;;;;;;5101530;28;20020;-80
2023/12/26 02:17:25;;;;;;;21.63;12.52;;;-0.40;99.90;;;;;;5101546;28;20024;-80
2023/12/26 02:19:51;;;;;;;21.30;13.45;;;-0.20;99.90;;;;;;5111197;28;20020;-78
2023/12/26 02:22:17;;;;;;;19.92;13.38;;;-0.20;99.90;;;;;;5095907;28;20024;-79
2023/12/26 02:24:44;;;;;;;21.67;12.60;;;-0.10;99.90;;;;;;5081551;28;20098;-79
2023/12/26 02:27:18;;;;;;;23.58;13.98;;;-0.10;99.90;;;;;;5106937;28;20103;-79
2023/12/26 02:29:47;;;;;;;20.08;12.88;;;-0.10;99.90;;;;;;5104204;28;20023;-79
2023/12/26 02:32:17;;;;;;;26.08;13.18;;;-0.20;99.90;;;;;;5094427;28;20052;-80
2023/12/26 02:34:43;;;;;;;20.05;11.55;;;-0.10;99.90;;;;;;5090245;28;20492;-80
2023/12/26 02:37:09;;;;;;;17.08;10.27;;;-0.20;99.90;;;;;;5101332;28;20023;-80
2023/12/26 02:39:35;;;;;;;16.80;10.50;;;-0.40;99.90;;;;;;5103156;28;20022;-78
2023/12/26 02:42:00;;;;;;;20.55;11.98;;;-0.40;99.90;;;;;;5112582;28;20023;-80
2023/12/26 02:44:26;;;;;;;18.15;11.13;;;-0.40;99.90;;;;;;5098361;28;20054;-79
2023/12/26 02:46:52;;;;;;;17.08;10.77;;;-0.50;99.90;;;;;;5113027;28;20050;-77
2023/12/26 02:49:18;;;;;;;22.02;13.57;;;-0.60;99.90;;;;;;5095862;28;20088;-79
2023/12/26 02:51:43;;;;;;;21.60;12.85;;;-0.60;99.90;;;;;;5099755;28;20322;-79
2023/12/26 02:54:09;;;;;;;24.15;11.05;;;-0.50;99.90;;;;;;5107478;28;20040;-79
2023/12/26 02:56:35;;;;;;;23.63;11.82;;;-0.40;99.90;;;;;;5094992;28;20220;-79
2023/12/26 02:59:01;;;;;;;20.48;13.30;;;-0.50;99.90;;;;;;5111670;28;20077;-80
2023/12/26 03:01:27;;;;;;;19.00;9.85;;;-0.50;99.90;;;;;;5107171;28;20016;-80
2023/12/26 03:03:52;;;;;;;21.33;12.65;;;-0.50;99.90;;;;;;5108284;28;20043;-80
2023/12/26 03:06:18;;;;;;;21.60;12.50;;;-0.50;99.90;;;;;;5106436;28;20094;-79
2023/12/26 03:08:44;;;;;;;21.85;12.65;;;-0.50;99.90;;;;;;5093554;28;20071;-79
2023/12/26 03:11:10;;;;;;;19.65;12.05;;;-0.50;99.90;;;;;;5107598;28;20044;-80
2023/12/26 03:13:36;;;;;;;19.77;13.13;;;-0.50;99.90;;;;;;5093519;28;20032;-79
2023/12/26 03:16:01;;;;;;;23.33;13.38;;;-0.50;99.90;;;;;;5092813;28;20034;-80
2023/12/26 03:18:27;;;;;;;22.17;12.93;;;-0.50;99.90;;;;;;5103929;28;20028;-79
2023/12/26 03:20:53;;;;;;;21.70;11.95;;;-0.40;99.90;;;;;;5100190;28;20022;-79
2023/12/26 03:23:19;;;;;;;23.30;12.68;;;-0.30;99.90;;;;;;5093595;28;20062;-80
2023/12/26 03:25:44;;;;;;;23.60;12.98;;;-0.30;99.90;;;;;;5096667;28;20416;-80
2023/12/26 03:28:10;;;;;;;19.77;12.45;;;-0.30;99.90;;;;;;5098556;28;20036;-79
2023/12/26 03:30:36;;;;;;;21.42;11.30;;;-0.30;99.90;;;;;;5104842;28;20103;-80
2023/12/26 03:33:02;;;;;;;21.25;11.63;;;-0.40;99.90;;;;;;5095514;28;20026;-79
2023/12/26 03:35:27;;;;;;;22.67;13.38;;;-0.50;99.90;;;;;;5102752;28;20058;-78
2023/12/26 03:37:53;;;;;;;21.10;11.85;;;-0.40;99.90;;;;;;5098813;28;20054;-79
2023/12/26 03:40:19;;;;;;;21.92;12.48;;;-0.30;99.90;;;;;;5105452;28;20150;-80
2023/12/26 03:42:46;;;;;;;29.75;13.07;;;-0.30;99.90;;;;;;5092738;28;20027;-79
2023/12/26 03:45:12;;;;;;;16.58;10.25;;;-0.30;99.90;;;;;;5112987;28;20043;-80
2023/12/26 03:47:38;;;;;;;18.02;11.40;;;-0.20;99.90;;;;;;5101422;28;20043;-79
2023/12/26 03:50:07;;;;;;;20.23;11.88;;;-0.30;99.90;;;;;;5088211;28;20127;-81
2023/12/26 03:52:34;;;;;;;21.70;11.48;;;-0.30;99.90;;;;;;5112916;28;20016;-80
2023/12/26 03:54:59;;;;;;;21.02;13.13;;;-0.30;99.90;;;;;;5105820;28;20028;-80
2023/12/26 03:57:25;;;;;;;20.13;11.60;;;-0.30;99.90;;;;;;5092416;28;20510;-80
2023/12/26 03:59:51;;;;;;;20.10;11.38;;;-0.30;99.90;;;;;;5093207;28;20023;-79
2023/12/26 04:02:17;;;;;;;27.33;13.77;;;-0.20;99.90;;;;;;5093807;28;20489;-80
2023/12/26 04:04:44;;;;;;;27.55;11.43;;;-0.20;99.90;;;;;;5095643;28;20020;-80
2023/12/26 04:07:10;;;;;;;21.15;12.80;;;-0.30;99.90;;;;;;5092493;28;20370;-80
2023/12/26 04:09:36;;;;;;;21.92;12.70;;;-0.20;99.90;;;;;;5097934;28;20035;-79
2023/12/26 04:12:01;;;;;;;21.80;13.02;;;-0.20;99.90;;;;;;5112944;28;20487;-78
2023/12/26 04:14:27;;;;;;;21.63;13.73;;;-0.10;99.90;;;;;;5093860;28;20020;-79
2023/12/26 04:16:53;;;;;;;27.10;14.60;;;-0.10;99.90;;;;;;5103571;28;20499;-78
2023/12/26 04:19:19;;;;;;;22.27;12.52;;;-0.10;99.90;;;;;;5095470;28;20020;-78
2023/12/26 04:21:44;;;;;;;23.70;14.43;;;0.00;99.90;;;;;;5101228;28;20377;-80
2023/12/26 04:24:10;;;;;;;28.25;14.93;;;0.00;99.90;;;;;;5098267;28;20028;-79
2023/12/26 04:26:36;;;;;;;24.90;12.80;;;0.10;99.90;;;;;;5098213;28;20051;-79
2023/12/26 04:29:02;;;;;;;19.65;13.40;;;0.10;99.90;;;;;;5092107;28;20046;-78
2023/12/26 04:31:28;;;;;;;23.17;13.07;;;0.20;99.90;;;;;;5092620;28;20111;-79
2023/12/26 04:33:54;;;;;;;19.98;12.02;;;0.20;99.90;;;;;;5101657;28;20082;-80
2023/12/26 04:36:20;;;;;;;23.80;13.13;;;0.20;99.90;;;;;;5094736;28;20031;-79
2023/12/26 04:38:46;;;;;;;22.75;13.00;;;0.20;99.90;;;;;;5105376;28;20036;-79
2023/12/26 04:41:11;;;;;;;25.38;13.13;;;0.30;99.90;;;;;;5091331;28;20039;-78
2023/12/26 04:43:39;;;;;;;18.73;11.55;;;0.30;99.90;;;;;;5105414;28;20040;-81
2023/12/26 04:46:05;;;;;;;25.02;13.40;;;0.30;99.90;;;;;;5092621;28;20031;-78
2023/12/26 04:48:30;;;;;;;22.75;13.00;;;0.30;99.90;;;;;;5111504;28;20401;-79
2023/12/26 04:50:56;;;;;;;18.88;12.40;;;0.30;99.90;;;;;;5101911;28;20024;-80
2023/12/26 04:53:24;;;;;;;26.10;13.25;;;0.30;99.90;;;;;;5110353;28;20484;-80
2023/12/26 04:55:50;;;;;;;32.70;12.35;;;0.40;99.90;;;;;;5107540;28;20008;-80
2023/12/26 04:58:16;;;;;;;18.08;11.45;;;0.40;99.90;;;;;;5114458;28;20043;-79
2023/12/26 05:00:43;;;;;;;21.02;13.27;;;0.40;99.90;;;;;;5108690;28;20017;-82
2023/12/26 05:03:09;;;;;;;32.67;16.88;;;0.40;99.90;;;;;;5101888;28;20020;-82
2023/12/26 05:05:35;;;;;;;23.02;13.68;;;0.40;99.90;;;;;;5098886;28;20051;-81
2023/12/26 05:08:01;;;;;;;20.42;12.95;;;0.50;99.90;;;;;;5106685;28;20063;-80
2023/12/26 05:10:27;;;;;;;25.08;12.07;;;0.50;99.90;;;;;;5097362;28;20443;-81
2023/12/26 05:12:52;;;;;;;24.85;12.45;;;0.50;99.90;;;;;;5086685;28;20027;-81
2023/12/26 05:15:18;;;;;;;23.00;12.07;;;0.50;99.90;;;;;;5102342;28;20492;-83
2023/12/26 05:17:44;;;;;;;23.15;13.00;;;0.60;99.90;;;;;;5107706;28;20031;-80
2023/12/26 05:20:11;;;;;;;27.17;14.52;;;0.60;99.90;;;;;;5105704;28;20027;-81
2023/12/26 05:22:36;;;;;;;23.77;14.40;;;0.60;99.90;;;;;;5097827;28;20388;-80
2023/12/26 05:25:02;;;;;;;35.10;16.33;;;0.70;99.90;;;;;;5096055;28;20016;-80
2023/12/26 05:27:28;;;;;;;23.13;14.30;;;0.70;99.90;;;;;;5078829;28;20081;-81
2023/12/26 05:29:54;;;;;;;27.77;14.30;;;0.70;99.90;;;;;;5101318;28;20012;-80
2023/12/26 05:32:20;;;;;;;25.77;14.60;;;0.70;99.90;;;;;;5103372;28;20548;-79
2023/12/26 05:34:48;;;;;;;28.40;14.52;;;0.80;99.90;;;;;;5112029;28;20045;-81
2023/12/26 05:37:13;;;;;;;26.15;13.60;;;0.70;99.90;;;;;;5101761;28;20039;-82
2023/12/26 05:39:43;;;;;;;23.90;13.98;;;0.80;99.90;;;;;;5102108;28;20024;-82
2023/12/26 05:42:09;;;;;;;21.45;12.48;;;0.80;99.90;;;;;;5102898;28;20051;-81
2023/12/26 05:44:35;;;;;;;30.15;13.88;;;0.80;99.90;;;;;;5098112;28;20107;-82
2023/12/26 05:47:03;;;;;;;31.13;16.52;;;0.80;99.90;;;;;;5107397;28;20047;-81
2023/12/26 05:49:29;;;;;;;23.52;13.80;;;0.90;99.90;;;;;;5100985;28;20040;-78
2023/12/26 05:51:55;;;;;;;24.88;15.60;;;0.90;99.90;;;;;;5094362;28;20070;-82
2023/12/26 05:54:20;;;;;;;25.23;13.82;;;1.00;99.90;;;;;;5101953;28;20032;-80
2023/12/26 05:56:46;;;;;;;28.23;15.23;;;1.00;99.90;;;;;;5091569;28;20381;-81
2023/12/26 05:59:12;;;;;;;23.35;12.43;;;1.00;99.90;;;;;;5089138;28;20028;-81
2023/12/26 06:01:38;;;;;;;22.65;12.98;;;1.00;99.90;;;;;;5095219;28;20050;-80
2023/12/26 06:04:03;;;;;;;26.95;13.88;;;1.00;99.90;;;;;;5110475;28;20030;-80
2023/12/26 06:06:29;;;;;;;24.55;13.52;;;1.00;99.90;;;;;;5103306;28;20024;-81
2023/12/26 06:08:55;;;;;;;24.77;15.20;;;1.00;99.90;;;;;;5101173;28;20343;-84
2023/12/26 06:11:21;;;;;;;27.85;14.50;;;1.00;99.90;;;;;;5113801;28;20027;-87
2023/12/26 06:13:47;;;;;;;29.15;15.23;;;1.00;99.90;;;;;;5102606;28;20488;-85
2023/12/26 06:16:12;;;;;;;25.00;13.85;;;1.00;99.90;;;;;;5101566;28;20031;-87
2023/12/26 06:18:38;;;;;;;24.65;12.57;;;1.10;99.90;;;;;;5107088;28;20028;-86
2023/12/26 06:21:04;;;;;;;33.92;13.48;;;1.10;99.90;;;;;;5119558;28;20050;-86
2023/12/26 06:23:31;;;;;;;24.50;14.38;;;1.20;99.90;;;;;;5118825;28;20042;-86
2023/12/26 06:25:57;;;;;;;28.23;12.88;;;1.30;99.90;;;;;;5124253;28;20012;-86
2023/12/26 06:28:23;;;;;;;21.17;12.68;;;1.30;99.90;;;;;;5118355;28;20089;-86
2023/12/26 06:30:49;;;;;;;16.53;11.47;;;1.40;99.90;;;;;;5122132;28;20016;-84
2023/12/26 06:33:15;;;;;;;22.40;13.00;;;1.40;99.90;;;;;;5110749;28;20028;-86
2023/12/26 06:35:41;;;;;;;24.83;12.23;;;1.40;99.90;;;;;;5111424;28;20138;-85
2023/12/26 06:38:12;;;;;;;26.63;11.82;;;1.40;99.90;;;;;;5104456;28;20016;-87
2023/12/26 06:40:42;;;;;;;18.27;9.93;;;1.40;99.90;;;;;;5100383;28;20027;-87
2023/12/26 06:43:10;;;;;;;23.10;12.10;;;1.40;99.90;;;;;;5098235;28;21612;-87
2023/12/26 06:45:36;;;;;;;26.40;10.90;;;1.50;99.90;;;;;;5109688;28;20048;-88
2023/12/26 06:48:03;;;;;;;16.38;9.60;;;1.50;99.90;;;;;;5082343;28;20063;-87
2023/12/26 06:50:29;;;;;;;21.17;8.82;;;1.60;99.90;;;;;;5089956;28;20101;-87
2023/12/26 06:52:55;;;;;;;18.02;8.20;;;1.60;99.90;;;;;;5084016;28;20044;-89
2023/12/26 06:55:21;;;;;;;16.45;9.52;;;1.70;99.90;;;;;;5096084;28;20020;-89
2023/12/26 06:57:47;;;;;;;19.95;17.92;;;1.70;99.90;;;;;;5105754;28;20062;-87
2023/12/26 07:00:15;;;;;;;15.75;10.23;;;1.80;99.90;;;;;;5095771;28;20070;-88
2023/12/26 07:02:41;;;;;;;15.50;10.10;;;1.80;99.90;;;;;;5096449;28;20046;-89
2023/12/26 07:05:07;;;;;;;14.40;10.23;;;1.90;99.90;;;;;;5097406;28;20416;-87
2023/12/26 07:07:33;;;;;;;15.13;9.13;;;1.80;99.90;;;;;;5082025;28;20020;-87
2023/12/26 07:09:59;;;;;;;13.95;7.65;;;1.90;99.90;;;;;;5105355;28;20051;-87
2023/12/26 07:12:25;;;;;;;10.07;6.15;;;1.90;99.90;;;;;;5096370;28;20024;-86
2023/12/26 07:14:50;;;;;;;9.93;8.52;;;1.90;99.90;;;;;;5089073;28;20030;-86
2023/12/26 07:17:16;;;;;;;16.85;15.45;;;1.90;99.90;;;;;;5107909;28;20028;-88
2023/12/26 07:19:42;;;;;;;22.17;20.27;;;1.90;99.90;;;;;;5099206;28;20023;-87
2023/12/26 07:22:08;;;;;;;9.18;6.80;;;1.90;99.90;;;;;;5107942;28;20444;-86
2023/12/26 07:24:34;;;;;;;10.48;6.07;;;1.90;99.90;;;;;;5116965;28;20020;-86
2023/12/26 07:26:59;;;;;;;14.38;12.95;;;1.90;99.90;;;;;;5116661;28;20104;-86
2023/12/26 07:29:27;;;;;;;10.90;9.80;;;2.00;99.90;;;;;;5100559;28;20040;-86
2023/12/26 07:31:53;;;;;;;11.90;10.45;;;1.90;99.90;;;;;;5097604;28;20012;-85
2023/12/26 07:34:18;;;;;;;14.82;13.00;;;1.90;99.90;;;;;;5103312;28;20028;-86
2023/12/26 07:36:44;;;;;;;8.00;5.15;;;1.90;99.90;;;;;;5107761;28;20020;-86
2023/12/26 07:39:10;;;;;;;50.80;47.42;;;1.90;99.90;;;;;;5118307;28;20027;-90
2023/12/26 07:41:36;;;;;;;5.45;4.63;;;1.90;99.90;;;;;;5086058;28;20015;-85
2023/12/26 07:44:02;;;;;;;6.97;4.13;;;1.90;99.90;;;;;;5116752;28;20059;-85
2023/12/26 07:46:28;;;;;;;12.30;11.27;;;1.90;99.90;;;;;;5101783;28;20024;-86
2023/12/26 07:48:54;;;;;;;7.72;5.40;;;1.80;99.90;;;;;;5109318;28;20030;-87
2023/12/26 07:51:20;;;;;;;11.60;5.78;;;1.80;99.90;;;;;;5096731;28;20031;-86
2023/12/26 07:53:47;;;;;;;9.57;7.10;;;1.80;99.90;;;;;;5102044;28;20569;-88
2023/12/26 07:56:13;;;;;;;8.60;5.07;;;1.80;99.90;;;;;;5100649;28;20024;-88
2023/12/26 07:58:39;;;;;;;8.82;6.07;;;1.80;99.90;;;;;;5095224;28;20020;-89
2023/12/26 08:01:05;;;;;;;6.75;4.45;;;1.80;99.90;;;;;;5094828;28;20024;-87
2023/12/26 08:03:31;;;;;;;8.45;5.82;;;1.80;99.90;;;;;;5105497;28;20032;-86
2023/12/26 08:05:56;;;;;;;8.77;5.40;;;1.80;99.90;;;;;;5103233;28;20020;-87
2023/12/26 08:08:22;;;;;;;8.02;5.03;;;1.70;99.90;;;;;;5105268;28;20045;-87
2023/12/26 08:10:48;;;;;;;11.55;5.85;;;1.70;99.90;;;;;;5111633;28;20031;-86
2023/12/26 08:13:14;;;;;;;9.02;4.57;;;1.70;99.90;;;;;;5094261;28;20028;-86
2023/12/26 08:15:40;;;;;;;13.40;5.03;;;1.70;99.90;;;;;;5094180;28;20104;-87
2023/12/26 08:18:06;;;;;;;9.27;4.90;;;1.70;99.90;;;;;;5083761;28;20032;-85
2023/12/26 08:20:33;;;;;;;8.13;5.05;;;1.70;99.90;;;;;;5088892;28;20024;-86
2023/12/26 08:23:00;;;;;;;6.45;4.78;;;1.70;99.90;;;;;;5110967;28;20023;-88
2023/12/26 08:25:26;;;;;;;8.07;5.57;;;1.70;99.90;;;;;;5114094;28;20028;-87
2023/12/26 08:27:51;;;;;;;8.73;5.20;;;1.70;99.90;;;;;;5098958;28;20128;-88
2023/12/26 08:30:19;;;;;;;10.73;6.03;;;1.70;99.90;;;;;;5096183;28;20594;-86
2023/12/26 08:32:45;;;;;;;6.72;5.53;;;1.70;99.90;;;;;;5106948;28;20114;-88
2023/12/26 08:35:11;;;;;;;8.88;4.45;;;1.50;99.90;;;;;;5094526;28;20055;-87
2023/12/26 08:37:37;;;;;;;7.30;4.20;;;1.50;99.90;;;;;;5093995;28;20477;-85
2023/12/26 08:40:03;;;;;;;8.18;5.55;;;1.50;99.90;;;;;;5092181;28;20031;-87
2023/12/26 08:42:29;;;;;;;7.40;4.82;;;1.50;99.90;;;;;;5109981;28;20023;-87
2023/12/26 08:44:55;;;;;;;7.28;4.35;;;1.40;99.90;;;;;;5098106;28;20437;-87
2023/12/26 08:47:21;;;;;;;6.10;3.72;;;1.50;99.90;;;;;;5101080;28;20020;-89
2023/12/26 08:49:47;;;;;;;7.25;4.03;;;1.50;99.90;;;;;;5118197;28;20084;-88
2023/12/26 08:52:13;;;;;;;7.03;5.03;;;1.50;99.90;;;;;;5121603;28;20035;-84
2023/12/26 08:54:43;;;;;;;10.65;4.32;;;1.50;99.90;;;;;;5111614;27;20031;-87
2023/12/26 08:57:09;;;;;;;6.07;3.85;;;1.50;99.90;;;;;;5109091;28;20020;-86
2023/12/26 08:59:34;;;;;;;5.32;3.20;;;1.60;99.90;;;;;;5107549;28;20042;-86
2023/12/26 09:02:00;;;;;;;9.05;7.25;;;1.60;99.90;;;;;;5108174;28;20032;-87
2023/12/26 09:04:26;;;;;;;7.07;4.10;;;1.60;99.90;;;;;;5131796;28;20373;-89
2023/12/26 09:06:55;;;;;;;4.60;3.08;;;1.60;99.90;;;;;;5119007;28;20051;-87
2023/12/26 09:09:21;;;;;;;8.25;3.78;;;1.60;99.90;;;;;;5110902;28;20098;-87
2023/12/26 09:11:46;;;;;;;9.30;2.97;;;1.70;99.90;;;;;;5121173;28;20103;-88
2023/12/26 09:14:13;;;;;;;6.43;3.20;;;1.70;99.90;;;;;;5116535;28;20024;-88
2023/12/26 09:16:40;;;;;;;6.45;3.78;;;1.70;99.90;;;;;;5131213;28;19997;-88
2023/12/26 09:19:05;;;;;;;10.95;5.45;;;1.70;99.90;;;;;;5119529;28;20044;-86
2023/12/26 09:21:31;;;;;;;7.55;3.45;;;1.70;99.90;;;;;;5121123;28;20028;-89
2023/12/26 09:23:57;;;;;;;10.07;3.25;;;1.70;99.90;;;;;;5126613;28;20034;-88
2023/12/26 09:26:24;;;;;;;6.43;4.45;;;1.80;99.90;;;;;;5114080;28;20015;-87
2023/12/26 09:28:50;;;;;;;4.53;2.10;;;1.90;99.90;;;;;;5116341;28;20028;-87
2023/12/26 09:31:16;;;;;;;5.57;2.33;;;1.90;99.90;;;;;;5123716;28;20026;-88
2023/12/26 09:33:42;;;;;;;5.72;3.05;;;1.80;99.90;;;;;;5125275;28;20028;-89
2023/12/26 09:36:08;;;;;;;6.78;3.55;;;1.90;99.90;;;;;;5138618;28;20033;-88
2023/12/26 09:38:34;;;;;;;10.60;5.90;;;2.00;99.90;;;;;;5107865;28;20092;-88
2023/12/26 09:41:00;;;;;;;3.38;2.35;;;2.00;99.90;;;;;;5110122;28;20042;-87
2023/12/26 09:43:27;;;;;;;2.55;2.10;;;2.00;99.90;;;;;;5116551;28;20027;-89
2023/12/26 09:45:53;;;;;;;4.22;2.95;;;2.10;99.90;;;;;;5105307;27;20020;-87
2023/12/26 09:48:18;;;;;;;6.50;3.20;;;2.10;99.90;;;;;;5097785;28;20484;-87
2023/12/26 09:50:46;;;;;;;4.57;2.83;;;2.10;99.90;;;;;;5097477;28;20024;-87
2023/12/26 09:53:16;;;;;;;2.38;1.50;;;2.10;99.90;;;;;;5100927;28;20026;-88
2023/12/26 09:55:41;;;;;;;3.78;2.20;;;2.10;99.90;;;;;;5109579;28;20031;-88
2023/12/26 09:58:07;;;;;;;4.95;3.10;;;2.20;99.90;;;;;;5096524;28;20374;-87
2023/12/26 10:00:36;;;;;;;8.02;2.20;;;2.20;99.90;;;;;;5117077;28;20020;-86
2023/12/26 10:03:02;;;;;;;5.32;2.03;;;2.30;99.90;;;;;;5111524;28;20028;-85
2023/12/26 10:05:28;;;;;;;4.40;2.70;;;2.30;99.90;;;;;;5121724;28;20020;-87
2023/12/26 10:07:54;;;;;;;5.80;3.58;;;2.40;99.90;;;;;;5119007;28;20031;-88
2023/12/26 10:10:20;;;;;;;7.15;3.50;;;2.40;99.90;;;;;;5097748;28;20064;-89
2023/12/26 10:12:47;;;;;;;6.47;2.35;;;2.30;99.90;;;;;;5100162;28;20055;-88
2023/12/26 10:15:13;;;;;;;2.60;1.40;;;2.30;99.90;;;;;;5110071;28;20019;-88
2023/12/26 10:17:42;;;;;;;13.85;3.28;;;2.40;99.90;;;;;;5100369;28;20268;-87
2023/12/26 10:20:08;;;;;;;6.55;3.03;;;2.40;99.90;;;;;;5104307;28;20027;-88
2023/12/26 10:22:34;;;;;;;9.57;2.95;;;2.40;99.90;;;;;;5100121;28;20039;-89
2023/12/26 10:25:00;;;;;;;6.95;2.92;;;2.40;99.90;;;;;;5103144;28;20012;-90
2023/12/26 10:27:26;;;;;;;6.15;2.95;;;2.30;99.90;;;;;;5102206;28;20034;-90
2023/12/26 10:29:56;;;;;;;6.88;2.60;;;2.20;99.90;;;;;;5114637;28;20507;-88
2023/12/26 10:32:25;;;;;;;4.05;1.90;;;2.20;99.90;;;;;;5104979;28;20024;-88
2023/12/26 10:34:55;;;;;;;3.38;1.70;;;2.20;99.90;;;;;;5112945;28;20020;-90
2023/12/26 10:37:21;;;;;;;3.97;2.28;;;2.10;99.90;;;;;;5099015;28;20016;-88
2023/12/26 10:39:47;;;;;;;4.80;2.93;;;2.10;99.90;;;;;;5094063;28;20115;-88
2023/12/26 10:42:18;;;;;;;3.47;2.22;;;2.00;99.90;;;;;;5104976;28;20278;-89
2023/12/26 10:44:45;;;;;;;4.10;2.28;;;1.90;99.90;;;;;;5099156;28;20048;-86
2023/12/26 10:47:12;;;;;;;1.98;1.77;;;1.80;99.90;;;;;;5093392;28;20439;-87
2023/12/26 10:49:41;;;;;;;7.00;2.25;;;1.80;99.90;;;;;;5094326;28;20043;-89
2023/12/26 10:52:10;;;;;;;3.88;2.20;;;1.80;99.90;;;;;;5095344;28;20020;-88
2023/12/26 10:54:38;;;;;;;2.80;1.60;;;1.70;99.90;;;;;;5094705;28;20404;-87
2023/12/26 10:57:07;;;;;;;5.32;1.50;;;1.70;99.90;;;;;;5102869;28;20031;-87
2023/12/26 10:59:34;;;;;;;2.50;1.02;;;1.60;99.90;;;;;;5116312;28;20028;-87
2023/12/26 11:02:01;;;;;;;1.77;1.08;;;1.60;99.90;;;;;;5105772;28;20034;-89
2023/12/26 11:04:29;;;;;;;3.83;3.53;;;1.60;99.90;;;;;;5123534;28;20031;-86
2023/12/26 11:06:56;;;;;;;3.25;1.08;;;1.60;99.90;;;;;;5119318;28;20026;-88
2023/12/26 11:09:22;;;;;;;1.92;1.00;;;1.60;99.90;;;;;;5103512;28;20032;-88
2023/12/26 11:11:49;;;;;;;1.98;1.40;;;1.50;99.90;;;;;;5096770;28;20047;-89
2023/12/26 11:14:14;;;;;;;4.72;2.83;;;1.50;99.90;;;;;;5095487;28;20068;-91
2023/12/26 11:16:41;;;;;;;2.90;1.65;;;1.50;99.90;;;;;;5083898;28;20016;-89
2023/12/26 11:19:08;;;;;;;4.95;1.95;;;1.50;99.90;;;;;;5094328;28;20040;-92
2023/12/26 11:21:36;;;;;;;3.25;1.88;;;1.50;99.90;;;;;;5094881;28;20040;-89
2023/12/26 11:24:02;;;;;;;2.00;1.40;;;1.40;99.90;;;;;;5093767;28;20055;-89
2023/12/26 11:26:30;;;;;;;1.45;1.25;;;1.40;99.90;;;;;;5088661;28;20029;-87
2023/12/26 11:28:57;;;;;;;3.40;1.92;;;1.40;99.90;;;;;;5067484;28;20101;-89
2023/12/26 11:31:23;;;;;;;2.75;1.45;;;1.30;99.90;;;;;;5074609;28;20016;-89
2023/12/26 11:33:49;;;;;;;7.85;2.55;;;1.30;99.90;;;;;;5062284;28;20097;-90
2023/12/26 11:36:15;;;;;;;2.65;1.55;;;1.20;99.90;;;;;;5086868;28;20098;-89
2023/12/26 11:38:41;;;;;;;2.55;1.85;;;1.20;99.90;;;;;;5082462;28;20035;-86
2023/12/26 11:41:08;;;;;;;2.22;1.85;;;1.20;99.90;;;;;;5097747;28;20036;-89
2023/12/26 11:43:34;;;;;;;2.47;1.75;;;1.10;99.90;;;;;;5102045;28;20036;-89
2023/12/26 11:46:00;;;;;;;1.98;1.40;;;1.00;99.90;;;;;;5112003;28;20031;-88
2023/12/26 11:48:26;;;;;;;5.20;2.83;;;0.90;99.90;;;;;;5102776;28;20040;-90
2023/12/26 11:50:57;;;;;;;4.65;2.35;;;0.90;99.90;;;;;;5110068;28;20036;-89
2023/12/26 11:53:23;;;;;;;3.45;2.25;;;0.90;99.90;;;;;;5108560;28;20026;-90
2023/12/26 11:55:49;;;;;;;4.22;2.53;;;0.80;99.90;;;;;;5114659;28;20020;-90
2023/12/26 11:58:14;;;;;;;3.83;2.15;;;0.80;99.90;;;;;;5118834;28;20052;-88
2023/12/26 12:00:40;;;;;;;6.43;2.75;;;0.80;99.90;;;;;;5112101;28;20023;-90
2023/12/26 12:03:06;;;;;;;3.38;2.13;;;0.80;99.90;;;;;;5096414;28;20028;-87
2023/12/26 12:05:32;;;;;;;5.07;2.65;;;0.70;99.90;;;;;;5110979;28;20114;-89
2023/12/26 12:08:14;;;;;;;4.35;2.40;;;0.80;99.90;;;;;;5102593;28;20115;-90
2023/12/26 12:11:08;;;;;;;3.50;2.70;;;0.70;99.90;;;;;;5097235;28;20024;-88
2023/12/26 12:13:34;;;;;;;6.85;3.08;;;0.70;99.90;;;;;;5106784;28;20046;-90
2023/12/26 12:15:59;;;;;;;3.80;2.40;;;0.70;99.90;;;;;;5103239;28;20024;-91
2023/12/26 12:18:26;;;;;;;2.65;1.98;;;0.70;99.90;;;;;;5097079;28;20066;-93
2023/12/26 12:20:52;;;;;;;3.65;1.98;;;0.70;99.90;;;;;;5098729;28;20032;-90
2023/12/26 12:23:19;;;;;;;5.93;3.33;;;0.60;99.90;;;;;;5095652;28;20028;-88
2023/12/26 12:25:44;;;;;;;3.55;2.38;;;0.60;99.90;;;;;;5094603;28;20020;-89
2023/12/26 12:28:10;;;;;;;2.72;2.10;;;0.60;99.90;;;;;;5094603;28;20522;-90
2023/12/26 12:30:36;;;;;;;4.50;2.80;;;0.60;99.90;;;;;;5107221;28;20484;-87
2023/12/26 12:33:20;;;;;;;2.60;1.88;;;0.60;99.90;;;;;;5096248;28;20048;-89
2023/12/26 12:35:49;;;;;;;2.47;1.55;;;0.60;99.90;;;;;;5096465;28;20031;-87